Time;durP1;ratioP1;P1;durP2;ratioP2;P2;SDS_P1;SDS_P2;PMS_P1;PMS_P2;Temp;Humidity;BMP_temperature;BMP_pressure;BME280_temperature;BME280_humidity;BME280_pressure;Samples;Min_cycle;Max_cycle;Signal;HPM_P1;HPM_P2
2021/10/29 00:00:34;;;;;;;27.60;13.25;;;;;;;;;;4978690;28;20026;-83
2021/10/29 00:03:01;;;;;;;26.63;13.50;;;;;;;;;;4991040;28;20129;-82
2021/10/29 00:05:27;;;;;;;29.15;14.43;;;;;;;;;;4991373;28;21324;-83
2021/10/29 00:07:54;;;;;;;28.02;13.43;;;;;;;;;;4984908;28;20159;-82
2021/10/29 00:10:20;;;;;;;27.25;14.18;;;;;;;;;;4995760;28;20018;-82
2021/10/29 00:12:46;;;;;;;28.30;14.02;;;;;;;;;;4977685;28;20036;-82
2021/10/29 00:15:13;;;;;;;29.10;14.48;;;;;;;;;;4992431;28;20078;-82
2021/10/29 00:17:39;;;;;;;26.35;14.43;;;;;;;;;;4992760;28;20425;-82
2021/10/29 00:20:05;;;;;;;28.45;14.23;;;;;;;;;;4994087;28;20031;-82
2021/10/29 00:22:31;;;;;;;26.98;13.98;;;;;;;;;;4976775;28;20053;-82
2021/10/29 00:24:57;;;;;;;31.27;14.32;;;;;;;;;;4979516;28;20462;-82
2021/10/29 00:27:23;;;;;;;31.15;14.77;;;;;;;;;;4972694;28;20050;-82
2021/10/29 00:29:49;;;;;;;26.05;14.10;;;;;;;;;;4976755;28;20045;-82
2021/10/29 00:32:17;;;;;;;30.45;14.15;;;;;;;;;;4979601;28;20398;-82
2021/10/29 00:34:42;;;;;;;28.70;15.15;;;;;;;;;;4976520;28;20172;-83
2021/10/29 00:37:09;;;;;;;28.42;14.00;;;;;;;;;;4990341;28;20301;-82
2021/10/29 00:39:35;;;;;;;29.98;14.90;;;;;;;;;;4972938;28;20029;-82
2021/10/29 00:42:01;;;;;;;30.17;14.85;;;;;;;;;;4993102;28;20026;-83
2021/10/29 00:44:27;;;;;;;28.55;13.88;;;;;;;;;;4991644;28;20023;-83
2021/10/29 00:46:54;;;;;;;29.27;14.25;;;;;;;;;;4992111;28;20030;-82
2021/10/29 00:49:21;;;;;;;27.02;13.27;;;;;;;;;;4987966;28;20039;-82
2021/10/29 00:51:47;;;;;;;27.25;13.32;;;;;;;;;;4988313;28;20053;-82
2021/10/29 00:54:15;;;;;;;27.80;13.85;;;;;;;;;;4995549;28;20386;-82
2021/10/29 00:56:41;;;;;;;31.35;14.75;;;;;;;;;;4993617;28;20030;-82
2021/10/29 00:59:07;;;;;;;30.95;14.38;;;;;;;;;;4986842;28;20041;-83
2021/10/29 01:01:33;;;;;;;25.52;13.27;;;;;;;;;;4992713;28;20027;-83
2021/10/29 01:03:59;;;;;;;30.33;14.52;;;;;;;;;;4978778;28;20157;-84
2021/10/29 01:06:27;;;;;;;27.20;14.02;;;;;;;;;;4990714;28;20045;-84
2021/10/29 01:08:53;;;;;;;30.73;14.13;;;;;;;;;;4986318;28;20019;-84
2021/10/29 01:11:20;;;;;;;32.38;14.15;;;;;;;;;;4990442;28;20031;-84
2021/10/29 01:13:50;;;;;;;34.63;15.07;;;;;;;;;;4978950;28;20026;-84
2021/10/29 01:16:16;;;;;;;29.27;14.73;;;;;;;;;;4982368;28;20034;-84
2021/10/29 01:18:43;;;;;;;27.75;12.35;;;;;;;;;;4983557;28;20113;-84
2021/10/29 01:21:09;;;;;;;29.48;13.60;;;;;;;;;;4988537;28;20133;-84
2021/10/29 01:23:36;;;;;;;29.13;14.25;;;;;;;;;;4989778;28;20050;-84
2021/10/29 01:26:07;;;;;;;24.98;13.45;;;;;;;;;;4986036;28;20050;-84
2021/10/29 01:28:34;;;;;;;29.80;13.50;;;;;;;;;;4990505;28;20069;-84
2021/10/29 01:31:00;;;;;;;24.90;13.18;;;;;;;;;;4982089;28;20038;-84
2021/10/29 01:33:25;;;;;;;26.73;13.02;;;;;;;;;;4988800;28;20505;-84
2021/10/29 01:35:51;;;;;;;29.77;13.95;;;;;;;;;;4982389;28;20030;-84
2021/10/29 01:38:17;;;;;;;27.20;13.55;;;;;;;;;;4988629;28;20497;-84
2021/10/29 01:40:43;;;;;;;30.17;14.25;;;;;;;;;;4984064;28;20034;-84
2021/10/29 01:43:09;;;;;;;32.65;14.40;;;;;;;;;;4991505;28;20084;-84
2021/10/29 01:45:35;;;;;;;29.52;13.68;;;;;;;;;;4988110;28;20023;-84
2021/10/29 01:48:02;;;;;;;31.98;14.77;;;;;;;;;;4991323;28;20034;-84
2021/10/29 01:50:28;;;;;;;26.13;12.95;;;;;;;;;;4989540;28;20031;-84
2021/10/29 01:52:54;;;;;;;23.50;11.88;;;;;;;;;;4985765;28;20053;-84
2021/10/29 01:55:20;;;;;;;26.35;13.95;;;;;;;;;;4994405;28;20045;-84
2021/10/29 01:57:46;;;;;;;26.08;14.00;;;;;;;;;;4976415;28;20518;-84
2021/10/29 02:00:13;;;;;;;26.58;11.93;;;;;;;;;;4989230;28;20117;-84
2021/10/29 02:02:40;;;;;;;25.67;12.73;;;;;;;;;;4987878;28;20509;-84
2021/10/29 02:05:07;;;;;;;25.92;12.60;;;;;;;;;;4976847;28;20022;-84
2021/10/29 02:07:33;;;;;;;24.80;12.43;;;;;;;;;;4987179;28;20030;-84
2021/10/29 02:09:59;;;;;;;28.70;13.02;;;;;;;;;;4989080;28;20019;-84
2021/10/29 02:12:25;;;;;;;26.08;13.02;;;;;;;;;;4980918;28;20030;-84
2021/10/29 02:14:51;;;;;;;23.80;13.32;;;;;;;;;;4989439;28;20022;-84
2021/10/29 02:17:17;;;;;;;24.75;12.45;;;;;;;;;;4976757;28;20023;-84
2021/10/29 02:19:43;;;;;;;24.05;12.73;;;;;;;;;;4977723;28;20037;-84
2021/10/29 02:22:09;;;;;;;27.40;12.18;;;;;;;;;;4988445;28;20030;-84
2021/10/29 02:24:35;;;;;;;27.92;11.95;;;;;;;;;;4991172;28;20077;-84
2021/10/29 02:27:02;;;;;;;24.58;11.52;;;;;;;;;;4988124;28;20403;-84
2021/10/29 02:29:28;;;;;;;26.95;12.65;;;;;;;;;;4975460;28;20026;-84
2021/10/29 02:31:55;;;;;;;26.95;13.35;;;;;;;;;;5000076;28;20026;-84
2021/10/29 02:34:21;;;;;;;27.42;13.15;;;;;;;;;;4975373;28;20125;-84
2021/10/29 02:36:47;;;;;;;24.38;11.77;;;;;;;;;;4980749;28;20027;-83
2021/10/29 02:39:13;;;;;;;25.15;12.20;;;;;;;;;;4982000;28;20030;-84
2021/10/29 02:41:39;;;;;;;24.80;12.40;;;;;;;;;;4996935;28;20034;-84
2021/10/29 02:44:05;;;;;;;27.73;12.68;;;;;;;;;;4981783;28;20026;-84
2021/10/29 02:46:31;;;;;;;24.58;11.68;;;;;;;;;;4991568;28;20038;-84
2021/10/29 02:48:57;;;;;;;22.08;10.50;;;;;;;;;;4980145;28;20117;-84
2021/10/29 02:51:25;;;;;;;28.33;13.38;;;;;;;;;;4998776;28;20085;-84
2021/10/29 02:53:52;;;;;;;19.88;11.10;;;;;;;;;;4990701;28;20057;-83
2021/10/29 02:56:18;;;;;;;27.15;12.38;;;;;;;;;;4993701;28;20542;-83
2021/10/29 02:58:44;;;;;;;24.38;12.07;;;;;;;;;;4990681;28;20582;-84
2021/10/29 03:01:10;;;;;;;22.13;11.02;;;;;;;;;;4977400;28;20030;-83
2021/10/29 03:03:36;;;;;;;23.65;12.63;;;;;;;;;;4976979;28;20125;-84
2021/10/29 03:06:02;;;;;;;25.05;12.48;;;;;;;;;;4993292;28;20034;-83
2021/10/29 03:08:28;;;;;;;27.23;13.32;;;;;;;;;;4992552;28;20161;-83
2021/10/29 03:10:55;;;;;;;26.77;12.52;;;;;;;;;;4986675;28;20027;-84
2021/10/29 03:13:21;;;;;;;25.33;11.93;;;;;;;;;;4991829;28;20038;-84
2021/10/29 03:15:49;;;;;;;26.63;13.13;;;;;;;;;;4993689;28;20018;-83
2021/10/29 03:18:15;;;;;;;24.08;11.75;;;;;;;;;;4976368;28;20035;-84
2021/10/29 03:20:42;;;;;;;23.80;12.70;;;;;;;;;;4989341;28;20517;-83
2021/10/29 03:23:08;;;;;;;28.55;12.02;;;;;;;;;;4986238;28;20029;-83
2021/10/29 03:25:34;;;;;;;23.98;12.18;;;;;;;;;;4973169;28;20458;-83
2021/10/29 03:28:01;;;;;;;22.85;11.18;;;;;;;;;;4992847;28;20058;-83
2021/10/29 03:30:27;;;;;;;22.73;11.82;;;;;;;;;;4979157;28;20080;-83
2021/10/29 03:32:54;;;;;;;24.27;11.35;;;;;;;;;;4990701;28;20033;-83
2021/10/29 03:35:20;;;;;;;24.83;12.48;;;;;;;;;;4990749;28;20425;-83
2021/10/29 03:38:01;;;;;;;26.10;13.30;;;;;;;;;;4983326;28;20528;-83
2021/10/29 03:43:13;;;;;;;28.10;13.45;;;;;;;;;;4991823;28;20080;-83
2021/10/29 03:48:31;;;;;;;28.30;13.32;;;;;;;;;;4986904;28;20053;-83
2021/10/29 03:51:05;;;;;;;24.52;12.77;;;;;;;;;;4975470;28;20422;-83
2021/10/29 03:53:37;;;;;;;29.65;13.88;;;;;;;;;;4990404;28;20072;-83
2021/10/29 03:56:04;;;;;;;26.20;12.47;;;;;;;;;;4987452;28;20026;-83
2021/10/29 03:58:30;;;;;;;29.63;13.35;;;;;;;;;;4990059;28;20069;-83
2021/10/29 04:00:56;;;;;;;24.92;12.18;;;;;;;;;;4976849;28;20034;-83
2021/10/29 04:03:22;;;;;;;25.30;12.18;;;;;;;;;;4990070;28;20073;-83
2021/10/29 04:05:48;;;;;;;26.52;13.05;;;;;;;;;;4991606;28;20173;-83
2021/10/29 04:08:14;;;;;;;25.50;12.95;;;;;;;;;;4984387;28;20433;-83
2021/10/29 04:10:45;;;;;;;28.23;13.32;;;;;;;;;;4994932;28;20467;-83
2021/10/29 04:13:12;;;;;;;26.40;12.82;;;;;;;;;;4995156;28;20144;-84
2021/10/29 04:15:40;;;;;;;27.05;12.80;;;;;;;;;;4996359;28;20027;-83
2021/10/29 04:18:06;;;;;;;26.67;13.65;;;;;;;;;;4979172;28;20454;-84
2021/10/29 04:20:32;;;;;;;32.47;14.50;;;;;;;;;;4977932;28;20065;-84
2021/10/29 04:22:58;;;;;;;28.20;13.95;;;;;;;;;;4995158;28;20034;-84
2021/10/29 04:25:24;;;;;;;27.15;13.88;;;;;;;;;;4990273;28;20038;-84
2021/10/29 04:28:00;;;;;;;29.02;13.60;;;;;;;;;;4982208;28;20069;-84
2021/10/29 04:30:29;;;;;;;27.40;13.45;;;;;;;;;;4978079;28;20114;-84
2021/10/29 04:32:55;;;;;;;30.00;13.30;;;;;;;;;;4996352;28;20050;-83
2021/10/29 04:35:22;;;;;;;27.05;12.93;;;;;;;;;;4997198;28;20049;-84
2021/10/29 04:37:48;;;;;;;24.48;12.50;;;;;;;;;;4987144;28;20026;-84
2021/10/29 04:40:14;;;;;;;25.55;13.05;;;;;;;;;;4983408;28;20379;-84
2021/10/29 04:42:41;;;;;;;25.88;12.68;;;;;;;;;;4991659;28;20035;-83
2021/10/29 04:45:07;;;;;;;26.60;12.82;;;;;;;;;;4984298;28;20026;-83
2021/10/29 04:47:34;;;;;;;26.65;12.60;;;;;;;;;;4993901;28;20034;-82
2021/10/29 04:50:00;;;;;;;26.67;13.70;;;;;;;;;;4991091;28;20050;-84
2021/10/29 04:52:26;;;;;;;25.95;12.18;;;;;;;;;;4981635;28;20398;-84
2021/10/29 04:54:52;;;;;;;30.98;13.15;;;;;;;;;;4995027;28;20446;-83
2021/10/29 04:57:18;;;;;;;28.27;13.55;;;;;;;;;;4992603;28;20145;-82
2021/10/29 04:59:44;;;;;;;28.98;13.95;;;;;;;;;;4977463;28;20030;-85
2021/10/29 05:02:10;;;;;;;27.88;12.95;;;;;;;;;;4980402;28;20025;-86
2021/10/29 05:04:36;;;;;;;26.08;12.95;;;;;;;;;;4992693;28;20022;-85
2021/10/29 05:07:02;;;;;;;28.38;13.30;;;;;;;;;;4977731;28;20026;-85
2021/10/29 05:09:28;;;;;;;29.88;13.60;;;;;;;;;;4989982;28;20129;-85
2021/10/29 05:11:54;;;;;;;25.25;12.95;;;;;;;;;;4988687;28;20053;-84
2021/10/29 05:14:20;;;;;;;24.63;13.18;;;;;;;;;;4993557;28;20035;-84
2021/10/29 05:16:47;;;;;;;28.35;13.57;;;;;;;;;;4988909;28;20031;-85
2021/10/29 05:19:13;;;;;;;24.15;12.30;;;;;;;;;;4975807;28;20026;-85
2021/10/29 05:21:39;;;;;;;31.23;14.45;;;;;;;;;;4989032;28;20029;-85
2021/10/29 05:24:05;;;;;;;27.70;13.52;;;;;;;;;;4992305;28;20069;-85
2021/10/29 05:26:31;;;;;;;27.05;12.55;;;;;;;;;;4991932;28;20053;-86
2021/10/29 05:28:57;;;;;;;26.50;12.93;;;;;;;;;;4991011;28;20026;-86
2021/10/29 05:31:23;;;;;;;28.52;13.68;;;;;;;;;;4979298;28;20391;-85
2021/10/29 05:33:49;;;;;;;28.63;14.05;;;;;;;;;;4994797;28;20022;-85
2021/10/29 05:36:15;;;;;;;27.33;14.20;;;;;;;;;;4988989;28;20533;-85
2021/10/29 05:38:41;;;;;;;32.50;14.50;;;;;;;;;;4981645;28;20041;-85
2021/10/29 05:41:07;;;;;;;27.77;13.07;;;;;;;;;;4983585;28;20031;-86
2021/10/29 05:43:33;;;;;;;23.92;12.90;;;;;;;;;;4991015;28;20069;-86
2021/10/29 05:45:59;;;;;;;32.85;13.98;;;;;;;;;;4991161;28;20045;-86
2021/10/29 05:48:25;;;;;;;35.78;16.08;;;;;;;;;;4986962;28;20117;-85
2021/10/29 05:50:52;;;;;;;26.95;13.00;;;;;;;;;;4988141;28;20057;-85
2021/10/29 05:55:57;;;;;;;28.88;14.35;;;;;;;;;;4987544;28;20110;-85
2021/10/29 05:58:23;;;;;;;28.88;12.95;;;;;;;;;;4977141;28;20034;-85
2021/10/29 06:00:50;;;;;;;27.25;12.10;;;;;;;;;;4989314;28;20121;-85
2021/10/29 06:03:16;;;;;;;28.00;13.55;;;;;;;;;;4985650;28;20419;-85
2021/10/29 06:05:42;;;;;;;29.17;13.18;;;;;;;;;;4985671;28;20507;-85
2021/10/29 06:08:08;;;;;;;31.48;14.77;;;;;;;;;;4982956;28;20034;-85
2021/10/29 06:10:34;;;;;;;25.88;12.63;;;;;;;;;;4987250;28;20018;-84
2021/10/29 06:13:00;;;;;;;26.60;13.25;;;;;;;;;;4992331;28;20030;-84
2021/10/29 06:15:26;;;;;;;28.15;13.38;;;;;;;;;;4990603;28;20618;-85
2021/10/29 06:17:52;;;;;;;29.70;14.32;;;;;;;;;;4990364;28;20030;-85
2021/10/29 06:20:21;;;;;;;29.65;13.75;;;;;;;;;;4985781;28;20034;-85
2021/10/29 06:22:50;;;;;;;27.92;13.20;;;;;;;;;;4993480;28;20053;-85
2021/10/29 06:25:19;;;;;;;29.80;14.00;;;;;;;;;;4992006;28;20034;-85
2021/10/29 06:30:45;;;;;;;26.98;12.95;;;;;;;;;;4956781;28;20546;-84
2021/10/29 06:33:12;;;;;;;32.70;14.52;;;;;;;;;;4977338;28;20045;-84
2021/10/29 06:35:39;;;;;;;29.70;13.40;;;;;;;;;;4992063;28;20061;-84
2021/10/29 06:38:05;;;;;;;30.15;13.32;;;;;;;;;;4993495;28;20439;-84
2021/10/29 06:40:37;;;;;;;28.80;13.77;;;;;;;;;;4990542;28;20404;-85
2021/10/29 06:43:07;;;;;;;30.73;14.43;;;;;;;;;;4988176;28;20058;-85
2021/10/29 07:40:17;;;;;;;30.02;14.27;;;;;;;;;;4983408;28;20081;-86
2021/10/29 07:45:12;;;;;;;28.08;13.63;;;;;;;;;;4980813;28;20043;-84
2021/10/29 07:47:38;;;;;;;25.83;12.88;;;;;;;;;;4981139;28;20054;-84
2021/10/29 07:50:06;;;;;;;28.13;14.27;;;;;;;;;;4984359;28;20114;-84
2021/10/29 07:52:32;;;;;;;28.23;14.18;;;;;;;;;;4983846;28;20538;-85
2021/10/29 07:54:58;;;;;;;26.67;13.73;;;;;;;;;;4992001;28;20053;-85
2021/10/29 07:57:24;;;;;;;29.80;13.70;;;;;;;;;;4981815;28;20045;-84
2021/10/29 07:59:51;;;;;;;27.80;13.95;;;;;;;;;;4983587;28;20088;-85
2021/10/29 08:02:18;;;;;;;27.13;13.63;;;;;;;;;;4993803;28;20390;-84
2021/10/29 08:04:44;;;;;;;26.17;12.60;;;;;;;;;;4981354;28;20402;-84
2021/10/29 08:07:11;;;;;;;25.73;13.55;;;;;;;;;;4997356;28;20064;-84
2021/10/29 08:09:37;;;;;;;27.55;13.10;;;;;;;;;;4994558;28;20387;-84
2021/10/29 08:12:03;;;;;;;25.77;12.43;;;;;;;;;;4983688;28;20045;-85
2021/10/29 08:14:29;;;;;;;28.35;13.88;;;;;;;;;;4990606;28;20356;-86
2021/10/29 08:16:55;;;;;;;27.85;13.30;;;;;;;;;;4982088;28;20053;-85
2021/10/29 08:19:29;;;;;;;26.42;12.93;;;;;;;;;;4992148;28;20023;-85
2021/10/29 08:21:55;;;;;;;24.42;12.18;;;;;;;;;;4987013;28;20023;-86
2021/10/29 08:24:22;;;;;;;28.38;12.80;;;;;;;;;;4993838;28;20023;-85
2021/10/29 08:26:48;;;;;;;25.00;12.73;;;;;;;;;;4993408;28;20065;-85
2021/10/29 08:29:14;;;;;;;24.90;11.98;;;;;;;;;;4975900;28;20037;-85
2021/10/29 08:31:41;;;;;;;24.17;11.95;;;;;;;;;;4977318;28;20466;-84
2021/10/29 08:34:07;;;;;;;24.27;11.88;;;;;;;;;;4985623;28;20023;-86
2021/10/29 08:36:36;;;;;;;28.13;12.02;;;;;;;;;;4990717;28;20038;-86
2021/10/29 08:39:02;;;;;;;25.73;12.27;;;;;;;;;;4989417;28;20030;-86
2021/10/29 08:41:29;;;;;;;22.95;11.80;;;;;;;;;;4990014;28;20029;-86
2021/10/29 08:43:56;;;;;;;23.10;11.20;;;;;;;;;;4981475;28;20479;-86
2021/10/29 08:46:22;;;;;;;25.40;12.82;;;;;;;;;;4986682;28;20073;-87
2021/10/29 08:48:50;;;;;;;22.98;11.20;;;;;;;;;;4987036;28;20499;-86
2021/10/29 08:51:17;;;;;;;24.52;11.27;;;;;;;;;;4987978;28;20113;-86
2021/10/29 08:53:44;;;;;;;28.25;12.25;;;;;;;;;;4990500;28;20073;-87
2021/10/29 08:56:10;;;;;;;24.85;11.23;;;;;;;;;;4980457;28;20034;-87
2021/10/29 08:58:56;;;;;;;21.48;10.43;;;;;;;;;;4986152;28;20022;-86
2021/10/29 09:01:22;;;;;;;20.08;9.07;;;;;;;;;;4989296;28;20379;-86
2021/10/29 09:03:53;;;;;;;20.88;11.45;;;;;;;;;;4990556;28;20034;-87
2021/10/29 09:09:49;;;;;;;19.85;10.18;;;;;;;;;;4952635;28;20492;-85
2021/10/29 09:31:33;;;;;;;20.02;8.55;;;;;;;;;;4988534;28;20038;-85
2021/10/29 09:34:04;;;;;;;15.18;7.80;;;;;;;;;;4989759;28;20105;-86
2021/10/29 09:36:30;;;;;;;15.05;7.85;;;;;;;;;;4989028;28;20022;-86
2021/10/29 09:39:02;;;;;;;14.20;8.48;;;;;;;;;;4979185;28;20037;-86
2021/10/29 09:41:28;;;;;;;16.67;8.38;;;;;;;;;;4979683;28;20443;-85
2021/10/29 09:44:05;;;;;;;13.55;7.10;;;;;;;;;;4987969;28;20030;-85
2021/10/29 09:46:40;;;;;;;12.70;7.55;;;;;;;;;;4986091;28;20037;-85
2021/10/29 09:49:10;;;;;;;15.63;8.05;;;;;;;;;;4983850;28;20031;-85
2021/10/29 09:51:49;;;;;;;12.93;6.82;;;;;;;;;;4983090;28;20048;-85
2021/10/29 09:54:18;;;;;;;12.48;7.13;;;;;;;;;;4991628;28;20475;-85
2021/10/29 09:56:49;;;;;;;15.55;7.30;;;;;;;;;;4991283;28;20023;-85
2021/10/29 09:59:15;;;;;;;16.08;7.32;;;;;;;;;;4986950;28;20027;-85
2021/10/29 10:01:41;;;;;;;12.30;6.70;;;;;;;;;;4977219;28;20084;-85
2021/10/29 10:04:08;;;;;;;16.38;7.32;;;;;;;;;;4992254;28;20043;-85
2021/10/29 10:06:34;;;;;;;13.27;7.00;;;;;;;;;;4975968;28;20018;-85
2021/10/29 10:09:03;;;;;;;13.15;6.88;;;;;;;;;;4990685;28;20026;-85
2021/10/29 10:11:30;;;;;;;13.13;6.93;;;;;;;;;;4978005;28;20019;-85
2021/10/29 10:13:57;;;;;;;15.25;7.13;;;;;;;;;;5001923;28;20037;-85
2021/10/29 10:16:27;;;;;;;12.23;6.15;;;;;;;;;;4975865;28;20085;-85
2021/10/29 10:18:53;;;;;;;11.88;6.18;;;;;;;;;;4977552;28;20022;-85
2021/10/29 10:21:21;;;;;;;10.88;5.75;;;;;;;;;;4986290;28;20029;-85
2021/10/29 10:23:50;;;;;;;15.07;7.70;;;;;;;;;;4982564;28;20033;-84
2021/10/29 10:26:28;;;;;;;12.27;7.47;;;;;;;;;;4969544;28;20050;-84
2021/10/29 10:29:05;;;;;;;10.93;5.68;;;;;;;;;;4991062;28;20069;-85
2021/10/29 10:40:27;;;;;;;10.75;5.70;;;;;;;;;;4983000;28;20162;-85
2021/10/29 10:43:05;;;;;;;11.10;5.40;;;;;;;;;;4984930;28;20040;-85
2021/10/29 10:45:47;;;;;;;11.35;6.20;;;;;;;;;;4975041;28;20108;-85
2021/10/29 10:48:14;;;;;;;9.30;5.10;;;;;;;;;;4985784;28;20030;-85
2021/10/29 10:50:45;;;;;;;9.73;5.03;;;;;;;;;;4983279;28;20560;-85
2021/10/29 10:53:31;;;;;;;9.60;5.30;;;;;;;;;;4987898;28;20026;-85
2021/10/29 10:56:20;;;;;;;9.57;5.57;;;;;;;;;;4986095;28;20030;-85
2021/10/29 10:59:12;;;;;;;10.85;5.55;;;;;;;;;;4987052;28;20417;-86
2021/10/29 11:04:25;;;;;;;10.20;5.18;;;;;;;;;;4976407;28;20043;-86
2021/10/29 11:09:57;;;;;;;10.55;5.25;;;;;;;;;;4986397;28;20069;-86
2021/10/29 11:12:24;;;;;;;10.63;5.32;;;;;;;;;;4984379;28;20027;-86
2021/10/29 11:15:06;;;;;;;9.90;5.18;;;;;;;;;;4988122;28;20552;-86
2021/10/29 11:17:43;;;;;;;8.13;4.95;;;;;;;;;;4988850;28;20035;-85
2021/10/29 11:20:11;;;;;;;12.15;5.47;;;;;;;;;;4987236;28;20031;-85
2021/10/29 11:22:44;;;;;;;8.82;4.88;;;;;;;;;;4974784;28;20110;-85
2021/10/29 11:25:14;;;;;;;9.55;4.72;;;;;;;;;;4978382;28;20494;-85
2021/10/29 11:27:42;;;;;;;10.20;5.03;;;;;;;;;;4974255;28;20042;-85
2021/10/29 11:30:09;;;;;;;8.95;4.85;;;;;;;;;;4975434;28;20505;-85
2021/10/29 11:32:37;;;;;;;10.95;5.32;;;;;;;;;;4973028;28;20019;-86
2021/10/29 11:35:03;;;;;;;9.35;4.50;;;;;;;;;;4989746;28;20536;-86
2021/10/29 11:37:33;;;;;;;8.82;5.07;;;;;;;;;;4989728;28;20034;-86
2021/10/29 11:40:00;;;;;;;8.25;4.43;;;;;;;;;;4990227;28;20049;-84
2021/10/29 11:42:28;;;;;;;9.00;4.70;;;;;;;;;;4980080;28;20026;-84
2021/10/29 11:44:57;;;;;;;9.48;4.68;;;;;;;;;;4990424;28;20042;-84
2021/10/29 11:47:23;;;;;;;8.70;4.40;;;;;;;;;;4997974;28;20058;-84
2021/10/29 11:49:50;;;;;;;6.43;3.85;;;;;;;;;;4987498;28;20125;-84
2021/10/29 11:52:19;;;;;;;5.55;3.42;;;;;;;;;;4982981;28;20385;-85
2021/10/29 11:54:48;;;;;;;6.47;4.07;;;;;;;;;;4993196;28;20026;-85
2021/10/29 11:57:43;;;;;;;8.07;3.88;;;;;;;;;;4990471;28;20410;-85
2021/10/29 12:00:21;;;;;;;6.50;3.50;;;;;;;;;;4985910;28;20479;-85
2021/10/29 12:07:13;;;;;;;5.25;3.10;;;;;;;;;;4984180;28;20037;-85
2021/10/29 12:08:31;;;;;;;6.50;4.07;;;;;;;;;;4978342;28;20526;-85
2021/10/29 12:10:59;;;;;;;7.38;4.15;;;;;;;;;;4972798;28;20108;-85
2021/10/29 12:13:27;;;;;;;5.30;3.42;;;;;;;;;;5000248;28;20026;-85
2021/10/29 12:15:53;;;;;;;5.95;3.33;;;;;;;;;;4985544;28;20039;-85
2021/10/29 12:18:27;;;;;;;9.93;3.92;;;;;;;;;;4972506;28;20062;-87
2021/10/29 12:20:53;;;;;;;5.65;4.05;;;;;;;;;;4980720;28;20113;-87
2021/10/29 12:23:26;;;;;;;5.90;3.40;;;;;;;;;;4974195;28;20057;-85
2021/10/29 12:25:58;;;;;;;5.32;3.60;;;;;;;;;;4981472;28;20054;-86
2021/10/29 12:28:28;;;;;;;7.43;3.60;;;;;;;;;;4980195;28;20022;-81
2021/10/29 13:03:03;;;;;;;9.57;5.90;;;;;;;;;;4986727;28;20037;-86
2021/10/29 13:05:29;;;;;;;10.52;5.28;;;;;;;;;;4974311;28;20019;-87
2021/10/29 13:07:55;;;;;;;10.40;5.40;;;;;;;;;;4976954;28;20474;-86
2021/10/29 13:10:22;;;;;;;11.05;5.30;;;;;;;;;;4992965;28;20371;-87
2021/10/29 13:13:25;;;;;;;8.23;5.03;;;;;;;;;;4989038;28;20025;-87
2021/10/29 13:15:40;;;;;;;9.43;4.93;;;;;;;;;;4982373;28;20434;-87
2021/10/29 13:18:13;;;;;;;6.60;4.32;;;;;;;;;;4992038;28;20034;-84
2021/10/29 13:21:02;;;;;;;7.93;5.13;;;;;;;;;;4992715;28;20433;-84
2021/10/29 13:26:25;;;;;;;7.05;4.30;;;;;;;;;;4978978;28;20070;-84
2021/10/29 13:29:09;;;;;;;7.47;4.78;;;;;;;;;;4989396;28;20031;-84
2021/10/29 13:37:17;;;;;;;8.57;5.22;;;;;;;;;;4987534;28;20534;-84
2021/10/29 13:53:37;;;;;;;10.13;6.22;;;;;;;;;;4982895;28;20088;-85
2021/10/29 13:56:16;;;;;;;11.93;5.63;;;;;;;;;;4985481;28;20041;-86
2021/10/29 13:59:02;;;;;;;10.48;6.00;;;;;;;;;;4975256;28;20030;-86
2021/10/29 14:01:41;;;;;;;10.75;5.90;;;;;;;;;;4980858;28;20030;-85
2021/10/29 14:16:27;;;;;;;11.85;6.90;;;;;;;;;;4995021;28;20437;-86
2021/10/29 14:29:11;;;;;;;14.40;7.38;;;;;;;;;;4981004;28;20045;-86
2021/10/29 14:31:47;;;;;;;15.07;8.65;;;;;;;;;;4982978;28;20030;-85
2021/10/29 14:34:18;;;;;;;13.50;7.93;;;;;;;;;;4985214;28;20042;-85
2021/10/29 14:36:54;;;;;;;14.57;8.45;;;;;;;;;;4992178;28;20029;-85
2021/10/29 14:39:40;;;;;;;19.08;9.25;;;;;;;;;;4992851;28;20470;-85
2021/10/29 14:42:21;;;;;;;16.70;8.85;;;;;;;;;;4981806;28;20121;-85
2021/10/29 14:45:02;;;;;;;13.52;7.97;;;;;;;;;;4977065;28;20109;-85
2021/10/29 14:47:57;;;;;;;14.93;7.53;;;;;;;;;;4993147;28;20029;-85
2021/10/29 14:53:27;;;;;;;15.23;8.45;;;;;;;;;;4986326;28;20041;-86
2021/10/29 15:06:31;;;;;;;16.25;8.15;;;;;;;;;;4992062;28;20030;-86
2021/10/29 15:14:54;;;;;;;12.85;7.20;;;;;;;;;;4973513;28;20035;-86
2021/10/29 15:25:35;;;;;;;14.80;8.68;;;;;;;;;;4994621;28;20347;-85
2021/10/29 15:28:21;;;;;;;15.35;9.05;;;;;;;;;;4989477;28;20446;-85
2021/10/29 15:31:10;;;;;;;15.50;8.70;;;;;;;;;;4984178;28;20080;-84
2021/10/29 15:33:45;;;;;;;15.00;8.70;;;;;;;;;;4990888;28;20041;-86
2021/10/29 15:44:10;;;;;;;14.02;8.48;;;;;;;;;;4985792;28;20471;-86
2021/10/29 15:51:53;;;;;;;14.82;9.13;;;;;;;;;;4988154;28;20367;-84
2021/10/29 15:54:19;;;;;;;14.63;8.57;;;;;;;;;;4981606;28;20027;-86
2021/10/29 15:56:52;;;;;;;18.05;9.38;;;;;;;;;;4975562;28;20551;-87
2021/10/29 16:02:11;;;;;;;18.05;9.18;;;;;;;;;;4996108;28;20109;-86
2021/10/29 16:18:20;;;;;;;15.77;9.02;;;;;;;;;;4997714;28;20551;-86
2021/10/29 16:20:46;;;;;;;16.17;9.82;;;;;;;;;;4994110;28;20038;-86
2021/10/29 16:23:12;;;;;;;17.42;9.02;;;;;;;;;;4991427;28;20033;-87
2021/10/29 16:25:48;;;;;;;15.45;9.13;;;;;;;;;;4978935;28;20061;-86
2021/10/29 16:28:15;;;;;;;16.95;9.35;;;;;;;;;;4984380;28;20031;-83
2021/10/29 16:30:42;;;;;;;17.85;9.68;;;;;;;;;;4991962;28;20034;-87
2021/10/29 16:33:23;;;;;;;18.95;9.90;;;;;;;;;;4981494;28;20027;-87
2021/10/29 16:35:50;;;;;;;17.85;10.07;;;;;;;;;;4987126;28;20507;-87
2021/10/29 16:38:16;;;;;;;15.32;9.80;;;;;;;;;;4979540;28;20077;-87
2021/10/29 16:40:42;;;;;;;17.45;9.00;;;;;;;;;;4983720;28;20606;-87
2021/10/29 16:43:09;;;;;;;19.80;9.93;;;;;;;;;;4997014;28;20050;-87
2021/10/29 16:45:41;;;;;;;17.55;9.65;;;;;;;;;;5010025;28;20018;-87
2021/10/29 16:48:07;;;;;;;18.52;10.63;;;;;;;;;;4968300;28;20088;-87
2021/10/29 16:50:33;;;;;;;19.05;11.15;;;;;;;;;;4978894;28;20125;-87
2021/10/29 16:52:59;;;;;;;19.05;10.18;;;;;;;;;;4989410;28;20480;-87
2021/10/29 16:55:27;;;;;;;19.45;10.38;;;;;;;;;;4973764;28;20088;-88
2021/10/29 16:57:53;;;;;;;22.08;11.43;;;;;;;;;;4979045;28;20505;-88
2021/10/29 17:00:19;;;;;;;17.17;10.35;;;;;;;;;;4979121;28;20054;-87
2021/10/29 17:02:45;;;;;;;19.27;11.52;;;;;;;;;;4978555;28;20026;-87
2021/10/29 17:05:12;;;;;;;19.63;11.07;;;;;;;;;;4978925;28;20023;-87
2021/10/29 17:07:38;;;;;;;19.27;10.73;;;;;;;;;;4997559;28;20105;-87
2021/10/29 17:10:08;;;;;;;21.63;12.27;;;;;;;;;;4994953;28;20146;-85
2021/10/29 17:12:39;;;;;;;22.20;11.13;;;;;;;;;;4959080;28;20037;-88
2021/10/29 17:15:05;;;;;;;21.60;11.13;;;;;;;;;;4973091;28;20125;-86
2021/10/29 17:17:32;;;;;;;19.45;10.73;;;;;;;;;;4994179;28;20038;-87
2021/10/29 17:19:58;;;;;;;17.83;10.38;;;;;;;;;;4994397;28;20031;-86
2021/10/29 17:22:24;;;;;;;20.10;11.98;;;;;;;;;;4978623;28;20022;-86
2021/10/29 17:24:50;;;;;;;20.63;11.70;;;;;;;;;;4977945;28;20023;-86
2021/10/29 17:27:16;;;;;;;22.20;13.02;;;;;;;;;;4977227;28;20109;-86
2021/10/29 17:29:42;;;;;;;22.75;12.43;;;;;;;;;;4978910;28;20026;-86
2021/10/29 17:32:11;;;;;;;20.73;11.90;;;;;;;;;;4995934;28;20157;-85
2021/10/29 17:34:38;;;;;;;20.45;11.63;;;;;;;;;;4979458;28;20027;-85
2021/10/29 17:37:04;;;;;;;23.08;11.95;;;;;;;;;;4985244;28;20422;-86
2021/10/29 17:39:31;;;;;;;21.15;11.80;;;;;;;;;;4994457;28;20145;-86
2021/10/29 17:41:57;;;;;;;21.95;11.38;;;;;;;;;;4975620;28;20030;-86
2021/10/29 17:44:23;;;;;;;24.60;12.40;;;;;;;;;;4972355;28;20038;-86
2021/10/29 17:46:50;;;;;;;23.40;13.63;;;;;;;;;;4978353;28;20053;-86
2021/10/29 17:49:17;;;;;;;19.85;11.45;;;;;;;;;;4995888;28;20030;-86
2021/10/29 17:51:44;;;;;;;21.27;12.77;;;;;;;;;;4985204;28;20062;-86
2021/10/29 17:54:10;;;;;;;22.98;13.52;;;;;;;;;;4972815;28;20034;-86
2021/10/29 17:56:37;;;;;;;24.20;12.43;;;;;;;;;;4989472;28;20030;-86
2021/10/29 17:59:05;;;;;;;24.85;13.45;;;;;;;;;;4989039;28;20038;-86
2021/10/29 18:01:31;;;;;;;26.60;13.25;;;;;;;;;;4986247;28;20019;-85
2021/10/29 18:03:57;;;;;;;24.80;13.27;;;;;;;;;;4977588;28;20498;-86
2021/10/29 18:06:23;;;;;;;24.50;12.73;;;;;;;;;;4982457;28;20237;-85
2021/10/29 18:09:04;;;;;;;25.88;13.98;;;;;;;;;;4991174;28;20022;-86
2021/10/29 18:11:31;;;;;;;23.65;12.68;;;;;;;;;;4978108;28;20030;-86
2021/10/29 18:13:57;;;;;;;27.17;14.55;;;;;;;;;;4988709;28;20027;-86
2021/10/29 18:16:26;;;;;;;23.75;13.23;;;;;;;;;;4974353;28;20391;-86
2021/10/29 18:18:54;;;;;;;24.40;14.30;;;;;;;;;;4979047;28;20038;-86
2021/10/29 18:21:20;;;;;;;30.38;14.85;;;;;;;;;;4990972;28;20023;-86
2021/10/29 18:23:52;;;;;;;28.48;13.63;;;;;;;;;;4986962;28;20026;-86
2021/10/29 18:26:18;;;;;;;26.00;14.95;;;;;;;;;;4989034;28;20066;-86
2021/10/29 18:28:44;;;;;;;27.05;13.52;;;;;;;;;;4986759;28;20090;-86
2021/10/29 18:31:11;;;;;;;27.52;15.35;;;;;;;;;;4988418;28;20030;-86
2021/10/29 18:33:37;;;;;;;24.98;14.32;;;;;;;;;;4987318;28;20053;-86